Webcam 1 more information Webcam 1


Webcam 2 more information Webcam 2


avvertimento per Pioggia more information rain snow radar


altri nostri siti meteo:

Pomeziameteo 1Sito sul meteo

Pomeziameteo DashboardSito sul meteo

Caput FrigorisSito sul meteo

BarcellonameteoSito sul meteo

MeteoipassiSito sul meteo

ViterbometeoSito sul meteo

MeteotortoretoSito sul meteo

Stazione LineameteoSito sul meteo



Neve/Ghiaccio Inizio validita dal: 23-02-2018 01:00 Fino: 24-02-2018 23:59 Allerta per: Neve/Ghiaccio Livello: Giallo info button
Pioggia Inizio validita dal: 22-02-2018 13:00 Fino: 24-02-2018 23:59 Allerta per: Pioggia Livello: Giallo info button

Report METAR

   
LIBP - Pescara
Dati ricevuti: 23-02-2018 02:50
Coperto  
Coperto  
   Vento: W 3.7 km/h
Vento: W 3.7 km/h
Temperatura: 5°C
P.to Rugiada: 4°C
Umidita: 93%
Barometro: 1003 hPa
Nuvole: Coperto
Visibilita: oltre 10 km
dettagli cloud: Coperto 2300 ft
LIBP 230150Z AUTO 24002KT 9999 OVC023/// 05/04 Q1003
LIRZ - Perugia
Dati ricevuti: 22-02-2018 22:50
DATI Obsoleti
Pioggia, Molto nuvoloso  
Pioggia, Molto nuvoloso  
   Vento: NE 27.8 km/h
Vento: NE 27.8 km/h
Temperatura: 5°C
Temperatura Vento: 0°C
P.to Rugiada: 3°C
Umidita: 87%
Barometro: 1002 hPa
Nuvole: Molto nuvoloso
Visibilita: oltre 10 km
dettagli cloud: Molto nuvoloso 5000 ft
LIRZ 222150Z 03015KT 9999 RA BKN050 05/03 Q1002
LIQN - Rieti
Dati ricevuti: 22-02-2018 17:50
DATI Obsoleti
Parzialmente nuvoloso  
Parzialmente nuvoloso  
   Vento: NNW 7.4 km/h
Vento: NNW 7.4 km/h
Temperatura: 5°C
Temperatura Vento: 3°C
P.to Rugiada: 4°C
Umidita: 93%
Barometro: 999 hPa
Nuvole: Parzialmente nuvoloso
Visibilita: oltre 10 km
dettagli cloud: Poche nuvole 2000 ft,
Parzialmente nuvoloso 4500 ft
LIQN 221650Z 34004KT 9999 FEW020 SCT045 05/04 Q0999
LIPY - Falconara
Dati ricevuti: 23-02-2018 00:00
DATI Obsoleti
Pioggia, Molto nuvoloso  
Pioggia, Molto nuvoloso  
   Vento: Sud 7.4 km/h
Vento: Sud 7.4 km/h
Temperatura: 5°C
Temperatura Vento: 3°C
P.to Rugiada: 4°C
Umidita: 93%
Barometro: 1004 hPa
Nuvole: Molto nuvoloso
Visibilita: 5 km
dettagli cloud: Parzialmente nuvoloso 400 ft,
Molto nuvoloso 800 ft
LIPY 222300Z 17004KT 120V230 5000 RA SCT004 BKN008 05/04 Q1004 WS R22
  

Script sviluppato da  Saratoga-weather.org Adattato per il modello da  Weerstation Leuven

Potete trovare le nostre info meteo anche a:

Weather Underground

AWEKAS

Citizen Weather Observer Program (CWOP)

HAMweather, WeatherForYou, PWS Weather

Strumentazione usata:

Stazione meteo
Oregon 928

Programma gestore dati meteo
WVIEW

Server per i dati meteo
Pc-WDS5

Oregon 928

WVIEW

Pc-WDS5